sensor_id;sensor_type;location;lat;lon;timestamp;pressure;altitude;pressure_sealevel;temperature;humidity
58843;BME280;44614;54.356;10.100;2023-12-28T00:00:30;100170.06;;;4.94;100.00
58843;BME280;44614;54.356;10.100;2023-12-28T00:02:59;99991.38;;;3.91;100.00
58843;BME280;44614;54.356;10.100;2023-12-28T00:05:24;99959.81;;;3.56;100.00
58843;BME280;44614;54.356;10.100;2023-12-28T00:07:50;99951.91;;;3.61;100.00
58843;BME280;44614;54.356;10.100;2023-12-28T00:10:25;100025.28;;;4.02;100.00
58843;BME280;44614;54.356;10.100;2023-12-28T00:12:51;100135.41;;;4.68;100.00
58843;BME280;44614;54.356;10.100;2023-12-28T00:15:17;100003.09;;;3.99;100.00
58843;BME280;44614;54.356;10.100;2023-12-28T00:17:42;100112.63;;;4.75;100.00
58843;BME280;44614;54.356;10.100;2023-12-28T00:20:08;100115.56;;;4.80;100.00
58843;BME280;44614;54.356;10.100;2023-12-28T00:22:34;100126.91;;;4.91;100.00
58843;BME280;44614;54.356;10.100;2023-12-28T00:25:03;99980.59;;;4.05;100.00
58843;BME280;44614;54.356;10.100;2023-12-28T00:27:29;99983.34;;;3.77;100.00
58843;BME280;44614;54.356;10.100;2023-12-28T00:29:54;100021.16;;;4.13;100.00
58843;BME280;44614;54.356;10.100;2023-12-28T00:32:20;99932.75;;;3.69;100.00
58843;BME280;44614;54.356;10.100;2023-12-28T00:34:45;100101.78;;;4.82;100.00
58843;BME280;44614;54.356;10.100;2023-12-28T00:37:11;100084.19;;;4.78;100.00
58843;BME280;44614;54.356;10.100;2023-12-28T00:39:36;100143.50;;;5.02;100.00
58843;BME280;44614;54.356;10.100;2023-12-28T00:42:02;100026.47;;;4.28;100.00
58843;BME280;44614;54.356;10.100;2023-12-28T00:44:27;100116.88;;;4.91;100.00
58843;BME280;44614;54.356;10.100;2023-12-28T00:46:52;100151.25;;;5.05;100.00
58843;BME280;44614;54.356;10.100;2023-12-28T00:49:18;100161.97;;;5.13;100.00
58843;BME280;44614;54.356;10.100;2023-12-28T00:51:43;100134.13;;;5.11;100.00
58843;BME280;44614;54.356;10.100;2023-12-28T00:54:09;100092.59;;;4.89;100.00
58843;BME280;44614;54.356;10.100;2023-12-28T00:56:34;100121.09;;;5.07;100.00
58843;BME280;44614;54.356;10.100;2023-12-28T00:59:00;100120.28;;;5.13;100.00
58843;BME280;44614;54.356;10.100;2023-12-28T01:01:27;100121.59;;;5.24;100.00
58843;BME280;44614;54.356;10.100;2023-12-28T01:03:56;100115.75;;;5.27;100.00
58843;BME280;44614;54.356;10.100;2023-12-28T01:06:21;100119.91;;;5.29;100.00
58843;BME280;44614;54.356;10.100;2023-12-28T01:08:47;100118.88;;;5.37;100.00
58843;BME280;44614;54.356;10.100;2023-12-28T01:11:12;100135.25;;;5.50;100.00
58843;BME280;44614;54.356;10.100;2023-12-28T01:13:39;100126.22;;;5.56;100.00
58843;BME280;44614;54.356;10.100;2023-12-28T01:16:05;100094.81;;;5.47;100.00
58843;BME280;44614;54.356;10.100;2023-12-28T01:18:32;100145.94;;;5.72;100.00
58843;BME280;44614;54.356;10.100;2023-12-28T01:20:58;100103.59;;;5.56;100.00
58843;BME280;44614;54.356;10.100;2023-12-28T01:23:23;100103.41;;;5.57;100.00
58843;BME280;44614;54.356;10.100;2023-12-28T01:25:49;100110.31;;;5.67;100.00
58843;BME280;44614;54.356;10.100;2023-12-28T01:28:14;100090.00;;;5.62;100.00
58843;BME280;44614;54.356;10.100;2023-12-28T01:30:41;100139.69;;;5.84;100.00
58843;BME280;44614;54.356;10.100;2023-12-28T01:33:06;100125.41;;;5.76;100.00
58843;BME280;44614;54.356;10.100;2023-12-28T01:35:32;100135.69;;;5.87;100.00
58843;BME280;44614;54.356;10.100;2023-12-28T01:37:57;100134.66;;;5.88;100.00
58843;BME280;44614;54.356;10.100;2023-12-28T01:40:25;100132.78;;;5.95;100.00
58843;BME280;44614;54.356;10.100;2023-12-28T01:42:52;100113.69;;;5.82;100.00
58843;BME280;44614;54.356;10.100;2023-12-28T01:45:17;100097.97;;;5.71;100.00
58843;BME280;44614;54.356;10.100;2023-12-28T01:47:43;99954.25;;;4.86;100.00
58843;BME280;44614;54.356;10.100;2023-12-28T01:50:09;100049.13;;;5.29;100.00
58843;BME280;44614;54.356;10.100;2023-12-28T01:52:34;99986.09;;;5.12;100.00
58843;BME280;44614;54.356;10.100;2023-12-28T01:55:00;100170.72;;;6.17;100.00
58843;BME280;44614;54.356;10.100;2023-12-28T01:57:27;100088.09;;;5.56;100.00
58843;BME280;44614;54.356;10.100;2023-12-28T01:59:53;100128.38;;;6.07;100.00
58843;BME280;44614;54.356;10.100;2023-12-28T02:02:18;100112.41;;;5.91;100.00
58843;BME280;44614;54.356;10.100;2023-12-28T02:04:45;100139.50;;;5.99;100.00
58843;BME280;44614;54.356;10.100;2023-12-28T02:07:10;100142.25;;;5.99;100.00
58843;BME280;44614;54.356;10.100;2023-12-28T02:09:36;100152.69;;;6.16;100.00
58843;BME280;44614;54.356;10.100;2023-12-28T02:12:02;100157.09;;;6.23;100.00
58843;BME280;44614;54.356;10.100;2023-12-28T02:14:28;100118.31;;;6.01;100.00
58843;BME280;44614;54.356;10.100;2023-12-28T02:17:00;100163.38;;;6.24;100.00
58843;BME280;44614;54.356;10.100;2023-12-28T02:20:02;100162.75;;;6.28;100.00
58843;BME280;44614;54.356;10.100;2023-12-28T02:22:32;100157.50;;;6.27;100.00
58843;BME280;44614;54.356;10.100;2023-12-28T02:25:08;100093.38;;;5.98;100.00
58843;BME280;44614;54.356;10.100;2023-12-28T02:27:36;100141.56;;;6.24;100.00
58843;BME280;44614;54.356;10.100;2023-12-28T02:30:03;100087.28;;;5.89;100.00
58843;BME280;44614;54.356;10.100;2023-12-28T02:36:00;100158.75;;;6.31;100.00
58843;BME280;44614;54.356;10.100;2023-12-28T02:38:09;100155.41;;;6.29;100.00
58843;BME280;44614;54.356;10.100;2023-12-28T02:40:40;100188.13;;;6.42;100.00
58843;BME280;44614;54.356;10.100;2023-12-28T02:43:06;100150.59;;;6.31;100.00
58843;BME280;44614;54.356;10.100;2023-12-28T02:45:32;100174.91;;;6.39;100.00
58843;BME280;44614;54.356;10.100;2023-12-28T02:47:57;100172.41;;;6.38;100.00
58843;BME280;44614;54.356;10.100;2023-12-28T02:50:22;100144.72;;;6.34;100.00
58843;BME280;44614;54.356;10.100;2023-12-28T02:52:48;100160.22;;;6.40;100.00
58843;BME280;44614;54.356;10.100;2023-12-28T02:55:14;100176.78;;;6.45;100.00
58843;BME280;44614;54.356;10.100;2023-12-28T02:57:39;100182.66;;;6.49;100.00
58843;BME280;44614;54.356;10.100;2023-12-28T03:00:06;100165.66;;;6.47;100.00
58843;BME280;44614;54.356;10.100;2023-12-28T03:02:34;100152.84;;;6.41;100.00
58843;BME280;44614;54.356;10.100;2023-12-28T03:05:00;100166.31;;;6.49;100.00
58843;BME280;44614;54.356;10.100;2023-12-28T03:07:25;100172.78;;;6.54;100.00
58843;BME280;44614;54.356;10.100;2023-12-28T03:09:51;100167.56;;;6.46;100.00
58843;BME280;44614;54.356;10.100;2023-12-28T03:12:16;100188.91;;;6.63;100.00
58843;BME280;44614;54.356;10.100;2023-12-28T03:14:42;100140.69;;;6.37;100.00
58843;BME280;44614;54.356;10.100;2023-12-28T03:17:08;100155.78;;;6.52;100.00
58843;BME280;44614;54.356;10.100;2023-12-28T03:19:35;100189.56;;;6.65;100.00
58843;BME280;44614;54.356;10.100;2023-12-28T03:22:01;100177.81;;;6.57;100.00
58843;BME280;44614;54.356;10.100;2023-12-28T03:24:27;100161.22;;;6.52;100.00
58843;BME280;44614;54.356;10.100;2023-12-28T03:26:53;100146.38;;;6.42;100.00
58843;BME280;44614;54.356;10.100;2023-12-28T03:29:19;100178.41;;;6.59;100.00
58843;BME280;44614;54.356;10.100;2023-12-28T03:31:45;100179.94;;;6.49;100.00
58843;BME280;44614;54.356;10.100;2023-12-28T03:34:10;100123.31;;;6.38;100.00
58843;BME280;44614;54.356;10.100;2023-12-28T03:36:36;100171.13;;;6.47;100.00
58843;BME280;44614;54.356;10.100;2023-12-28T03:39:01;100180.97;;;6.54;100.00
58843;BME280;44614;54.356;10.100;2023-12-28T03:41:29;100210.94;;;6.68;100.00
58843;BME280;44614;54.356;10.100;2023-12-28T03:43:55;100177.59;;;6.66;100.00
58843;BME280;44614;54.356;10.100;2023-12-28T03:46:20;100151.19;;;6.46;100.00
58843;BME280;44614;54.356;10.100;2023-12-28T03:48:46;100151.19;;;6.53;100.00
58843;BME280;44614;54.356;10.100;2023-12-28T03:51:15;100173.19;;;6.65;100.00
58843;BME280;44614;54.356;10.100;2023-12-28T03:53:44;100140.47;;;6.45;100.00
58843;BME280;44614;54.356;10.100;2023-12-28T03:56:26;100181.78;;;6.68;100.00
58843;BME280;44614;54.356;10.100;2023-12-28T03:58:55;100176.09;;;6.70;100.00
58843;BME280;44614;54.356;10.100;2023-12-28T04:01:21;100185.53;;;6.80;100.00
58843;BME280;44614;54.356;10.100;2023-12-28T04:03:49;100181.53;;;6.83;100.00
58843;BME280;44614;54.356;10.100;2023-12-28T04:06:15;100182.78;;;6.87;100.00
58843;BME280;44614;54.356;10.100;2023-12-28T04:08:41;100177.94;;;6.89;100.00
58843;BME280;44614;54.356;10.100;2023-12-28T04:11:08;100125.56;;;6.54;100.00
58843;BME280;44614;54.356;10.100;2023-12-28T04:13:35;100153.03;;;6.66;100.00
58843;BME280;44614;54.356;10.100;2023-12-28T04:16:00;100189.06;;;6.88;100.00
58843;BME280;44614;54.356;10.100;2023-12-28T04:18:26;100180.47;;;6.84;100.00
58843;BME280;44614;54.356;10.100;2023-12-28T04:20:52;100166.91;;;6.57;100.00
58843;BME280;44614;54.356;10.100;2023-12-28T04:23:17;100157.66;;;6.65;100.00
58843;BME280;44614;54.356;10.100;2023-12-28T04:25:43;100145.69;;;6.59;100.00
58843;BME280;44614;54.356;10.100;2023-12-28T04:28:08;100185.94;;;6.71;100.00
58843;BME280;44614;54.356;10.100;2023-12-28T04:30:34;100147.19;;;6.49;100.00
58843;BME280;44614;54.356;10.100;2023-12-28T04:33:00;100175.47;;;6.68;100.00
58843;BME280;44614;54.356;10.100;2023-12-28T04:35:26;100185.34;;;6.69;100.00
58843;BME280;44614;54.356;10.100;2023-12-28T04:37:52;100152.84;;;6.54;100.00
58843;BME280;44614;54.356;10.100;2023-12-28T04:40:18;100092.72;;;5.82;100.00
58843;BME280;44614;54.356;10.100;2023-12-28T04:42:43;100098.63;;;5.99;100.00
58843;BME280;44614;54.356;10.100;2023-12-28T04:45:09;100057.75;;;5.93;100.00
58843;BME280;44614;54.356;10.100;2023-12-28T04:47:38;100113.66;;;6.22;100.00
58843;BME280;44614;54.356;10.100;2023-12-28T04:50:04;100105.31;;;5.77;100.00
58843;BME280;44614;54.356;10.100;2023-12-28T04:52:30;100192.09;;;6.53;100.00
58843;BME280;44614;54.356;10.100;2023-12-28T04:54:56;100024.44;;;5.31;100.00
58843;BME280;44614;54.356;10.100;2023-12-28T04:57:22;100086.00;;;5.52;100.00
58843;BME280;44614;54.356;10.100;2023-12-28T04:59:50;100138.84;;;6.17;100.00
58843;BME280;44614;54.356;10.100;2023-12-28T05:02:15;100175.75;;;6.40;100.00
58843;BME280;44614;54.356;10.100;2023-12-28T05:04:41;100105.31;;;6.03;100.00
58843;BME280;44614;54.356;10.100;2023-12-28T05:07:11;100167.38;;;6.34;100.00
58843;BME280;44614;54.356;10.100;2023-12-28T05:09:40;100146.81;;;6.32;100.00
58843;BME280;44614;54.356;10.100;2023-12-28T05:12:06;100106.97;;;5.84;100.00
58843;BME280;44614;54.356;10.100;2023-12-28T05:14:31;100044.75;;;5.55;100.00
58843;BME280;44614;54.356;10.100;2023-12-28T05:16:57;100116.63;;;6.20;100.00
58843;BME280;44614;54.356;10.100;2023-12-28T05:19:22;100049.78;;;5.51;100.00
58843;BME280;44614;54.356;10.100;2023-12-28T05:21:48;100070.50;;;5.79;100.00
58843;BME280;44614;54.356;10.100;2023-12-28T05:24:13;100200.28;;;6.46;100.00
58843;BME280;44614;54.356;10.100;2023-12-28T05:26:39;100099.84;;;5.77;100.00
58843;BME280;44614;54.356;10.100;2023-12-28T05:29:04;100059.19;;;5.49;100.00
58843;BME280;44614;54.356;10.100;2023-12-28T05:31:30;100041.59;;;5.45;100.00
58843;BME280;44614;54.356;10.100;2023-12-28T05:33:55;99992.59;;;5.38;100.00
58843;BME280;44614;54.356;10.100;2023-12-28T05:36:22;100046.63;;;5.48;100.00
58843;BME280;44614;54.356;10.100;2023-12-28T05:38:48;100104.47;;;6.09;100.00
58843;BME280;44614;54.356;10.100;2023-12-28T05:41:13;100086.66;;;5.80;100.00
58843;BME280;44614;54.356;10.100;2023-12-28T05:43:39;100104.03;;;6.13;100.00
58843;BME280;44614;54.356;10.100;2023-12-28T05:46:04;100141.75;;;6.29;100.00
58843;BME280;44614;54.356;10.100;2023-12-28T05:48:30;100138.19;;;6.35;100.00
58843;BME280;44614;54.356;10.100;2023-12-28T05:50:59;100091.88;;;5.95;100.00
58843;BME280;44614;54.356;10.100;2023-12-28T05:53:26;100077.19;;;6.09;100.00
58843;BME280;44614;54.356;10.100;2023-12-28T05:55:53;100080.56;;;5.98;100.00
58843;BME280;44614;54.356;10.100;2023-12-28T05:58:19;100110.50;;;6.31;100.00
58843;BME280;44614;54.356;10.100;2023-12-28T06:00:44;100023.16;;;5.73;100.00
58843;BME280;44614;54.356;10.100;2023-12-28T06:03:12;100085.78;;;5.80;100.00
58843;BME280;44614;54.356;10.100;2023-12-28T06:05:38;100005.56;;;5.56;100.00
58843;BME280;44614;54.356;10.100;2023-12-28T06:08:04;99995.09;;;5.53;100.00
58843;BME280;44614;54.356;10.100;2023-12-28T06:10:29;100100.47;;;6.19;100.00
58843;BME280;44614;54.356;10.100;2023-12-28T06:12:55;100058.53;;;6.20;100.00
58843;BME280;44614;54.356;10.100;2023-12-28T06:15:21;100097.97;;;5.97;100.00
58843;BME280;44614;54.356;10.100;2023-12-28T06:17:46;100044.91;;;5.86;100.00
58843;BME280;44614;54.356;10.100;2023-12-28T06:20:12;100103.53;;;6.55;100.00
58843;BME280;44614;54.356;10.100;2023-12-28T06:22:37;100040.06;;;6.22;100.00
58843;BME280;44614;54.356;10.100;2023-12-28T06:25:03;100066.22;;;6.36;100.00
58843;BME280;44614;54.356;10.100;2023-12-28T06:27:29;100098.47;;;6.52;100.00
58843;BME280;44614;54.356;10.100;2023-12-28T06:29:58;100041.75;;;6.09;100.00
58843;BME280;44614;54.356;10.100;2023-12-28T06:32:43;100126.59;;;6.59;100.00
58843;BME280;44614;54.356;10.100;2023-12-28T06:35:09;100101.50;;;6.24;100.00
58843;BME280;44614;54.356;10.100;2023-12-28T06:37:42;100012.66;;;5.97;100.00
58843;BME280;44614;54.356;10.100;2023-12-28T06:40:08;100014.97;;;5.93;100.00
58843;BME280;44614;54.356;10.100;2023-12-28T06:42:36;99955.09;;;5.40;100.00
58843;BME280;44614;54.356;10.100;2023-12-28T06:45:05;100127.06;;;6.50;100.00
58843;BME280;44614;54.356;10.100;2023-12-28T06:47:31;100065.41;;;6.29;100.00
58843;BME280;44614;54.356;10.100;2023-12-28T06:49:57;100077.31;;;6.54;100.00
58843;BME280;44614;54.356;10.100;2023-12-28T06:52:22;99976.16;;;6.04;100.00
58843;BME280;44614;54.356;10.100;2023-12-28T06:54:51;99888.47;;;5.49;100.00
58843;BME280;44614;54.356;10.100;2023-12-28T06:57:16;99991.47;;;6.05;100.00
58843;BME280;44614;54.356;10.100;2023-12-28T06:59:42;100108.19;;;6.93;100.00
58843;BME280;44614;54.356;10.100;2023-12-28T07:02:08;100006.88;;;6.38;100.00
58843;BME280;44614;54.356;10.100;2023-12-28T07:04:33;100051.44;;;6.64;100.00
58843;BME280;44614;54.356;10.100;2023-12-28T07:07:08;99947.59;;;6.20;100.00
58843;BME280;44614;54.356;10.100;2023-12-28T07:09:33;100009.63;;;6.31;100.00
58843;BME280;44614;54.356;10.100;2023-12-28T07:11:59;100086.75;;;6.97;100.00
58843;BME280;44614;54.356;10.100;2023-12-28T07:14:25;99945.59;;;5.96;100.00
58843;BME280;44614;54.356;10.100;2023-12-28T07:16:50;100081.34;;;6.90;100.00
58843;BME280;44614;54.356;10.100;2023-12-28T07:19:19;99998.06;;;6.36;100.00
58843;BME280;44614;54.356;10.100;2023-12-28T07:21:45;100122.81;;;7.12;100.00
58843;BME280;44614;54.356;10.100;2023-12-28T07:24:10;100061.94;;;6.67;100.00
58843;BME280;44614;54.356;10.100;2023-12-28T07:26:36;100063.97;;;6.78;100.00
58843;BME280;44614;54.356;10.100;2023-12-28T07:29:02;100146.69;;;7.23;100.00
58843;BME280;44614;54.356;10.100;2023-12-28T07:31:28;100101.50;;;7.27;100.00
58843;BME280;44614;54.356;10.100;2023-12-28T07:33:54;100122.53;;;7.27;100.00
58843;BME280;44614;54.356;10.100;2023-12-28T07:36:20;100096.56;;;7.11;100.00
58843;BME280;44614;54.356;10.100;2023-12-28T07:38:46;99931.63;;;6.24;100.00
58843;BME280;44614;54.356;10.100;2023-12-28T07:41:15;100029.16;;;6.73;100.00
58843;BME280;44614;54.356;10.100;2023-12-28T07:43:41;100110.22;;;7.43;100.00
58843;BME280;44614;54.356;10.100;2023-12-28T07:46:07;100043.34;;;7.20;100.00
58843;BME280;44614;54.356;10.100;2023-12-28T07:48:32;100097.25;;;7.38;100.00
58843;BME280;44614;54.356;10.100;2023-12-28T07:54:39;100041.94;;;7.18;100.00
58843;BME280;44614;54.356;10.100;2023-12-28T07:57:05;100046.06;;;7.27;100.00
58843;BME280;44614;54.356;10.100;2023-12-28T07:59:30;100045.19;;;7.33;100.00
58843;BME280;44614;54.356;10.100;2023-12-28T08:01:56;100053.06;;;7.48;100.00
58843;BME280;44614;54.356;10.100;2023-12-28T08:04:25;100067.00;;;7.65;100.00
58843;BME280;44614;54.356;10.100;2023-12-28T08:06:51;100028.66;;;7.46;100.00
58843;BME280;44614;54.356;10.100;2023-12-28T08:09:17;100023.31;;;7.33;100.00
58843;BME280;44614;54.356;10.100;2023-12-28T08:11:42;99978.31;;;7.11;100.00
58843;BME280;44614;54.356;10.100;2023-12-28T08:14:08;100067.53;;;7.48;100.00
58843;BME280;44614;54.356;10.100;2023-12-28T08:16:34;99832.19;;;5.88;100.00
58843;BME280;44614;54.356;10.100;2023-12-28T08:19:03;99953.81;;;7.04;100.00
58843;BME280;44614;54.356;10.100;2023-12-28T08:21:32;99886.97;;;6.56;100.00
58843;BME280;44614;54.356;10.100;2023-12-28T08:23:57;100014.38;;;7.19;100.00
58843;BME280;44614;54.356;10.100;2023-12-28T08:26:24;99976.31;;;6.99;100.00
58843;BME280;44614;54.356;10.100;2023-12-28T08:28:49;99816.50;;;6.22;100.00
58843;BME280;44614;54.356;10.100;2023-12-28T08:31:18;99862.38;;;5.93;100.00
58843;BME280;44614;54.356;10.100;2023-12-28T08:33:50;100004.13;;;6.83;100.00
58843;BME280;44614;54.356;10.100;2023-12-28T08:36:18;100110.94;;;7.63;100.00
58843;BME280;44614;54.356;10.100;2023-12-28T08:38:47;99810.25;;;5.70;100.00
58843;BME280;44614;54.356;10.100;2023-12-28T08:41:22;99814.81;;;5.76;100.00
58843;BME280;44614;54.356;10.100;2023-12-28T08:43:53;100086.38;;;7.25;100.00
58843;BME280;44614;54.356;10.100;2023-12-28T08:46:28;100106.31;;;7.64;100.00
58843;BME280;44614;54.356;10.100;2023-12-28T08:48:54;100095.38;;;7.64;100.00
58843;BME280;44614;54.356;10.100;2023-12-28T08:51:20;99907.81;;;6.44;100.00
58843;BME280;44614;54.356;10.100;2023-12-28T08:53:52;99988.09;;;6.62;100.00
58843;BME280;44614;54.356;10.100;2023-12-28T08:56:22;99861.91;;;6.41;100.00
58843;BME280;44614;54.356;10.100;2023-12-28T08:58:49;100098.22;;;7.75;100.00
58843;BME280;44614;54.356;10.100;2023-12-28T09:02:02;100106.19;;;7.77;100.00
58843;BME280;44614;54.356;10.100;2023-12-28T09:04:28;99965.47;;;7.18;100.00
58843;BME280;44614;54.356;10.100;2023-12-28T09:06:54;99958.94;;;7.19;100.00
58843;BME280;44614;54.356;10.100;2023-12-28T09:09:19;100064.31;;;7.58;100.00
58843;BME280;44614;54.356;10.100;2023-12-28T09:11:45;100013.03;;;7.28;100.00
58843;BME280;44614;54.356;10.100;2023-12-28T09:14:10;100017.56;;;7.66;100.00
58843;BME280;44614;54.356;10.100;2023-12-28T09:16:36;100025.66;;;7.54;100.00
58843;BME280;44614;54.356;10.100;2023-12-28T09:19:01;100002.38;;;7.52;100.00
58843;BME280;44614;54.356;10.100;2023-12-28T09:21:27;100055.81;;;7.91;100.00
58843;BME280;44614;54.356;10.100;2023-12-28T09:23:52;100023.75;;;7.80;100.00
58843;BME280;44614;54.356;10.100;2023-12-28T09:26:18;100043.75;;;7.99;100.00
58843;BME280;44614;54.356;10.100;2023-12-28T09:28:43;100059.38;;;8.17;100.00
58843;BME280;44614;54.356;10.100;2023-12-28T09:31:09;100070.00;;;8.25;100.00
58843;BME280;44614;54.356;10.100;2023-12-28T09:33:34;100033.22;;;8.02;100.00
58843;BME280;44614;54.356;10.100;2023-12-28T09:36:03;100042.41;;;8.26;100.00
58843;BME280;44614;54.356;10.100;2023-12-28T09:38:28;100036.94;;;8.26;100.00
58843;BME280;44614;54.356;10.100;2023-12-28T09:40:54;100034.25;;;8.45;100.00
58843;BME280;44614;54.356;10.100;2023-12-28T09:43:26;100050.97;;;8.55;100.00
58843;BME280;44614;54.356;10.100;2023-12-28T09:45:56;100032.78;;;8.42;100.00
58843;BME280;44614;54.356;10.100;2023-12-28T09:48:22;100036.28;;;8.49;100.00
58843;BME280;44614;54.356;10.100;2023-12-28T09:50:51;100062.13;;;8.53;100.00
58843;BME280;44614;54.356;10.100;2023-12-28T09:53:22;100055.13;;;8.39;100.00
58843;BME280;44614;54.356;10.100;2023-12-28T09:55:48;100003.53;;;8.24;100.00
58843;BME280;44614;54.356;10.100;2023-12-28T09:58:16;100059.78;;;8.57;100.00
58843;BME280;44614;54.356;10.100;2023-12-28T10:00:46;100060.44;;;8.71;100.00
58843;BME280;44614;54.356;10.100;2023-12-28T10:03:13;100057.72;;;8.71;100.00
58843;BME280;44614;54.356;10.100;2023-12-28T10:05:43;100038.50;;;8.41;100.00
58843;BME280;44614;54.356;10.100;2023-12-28T10:08:11;100069.50;;;8.53;100.00
58843;BME280;44614;54.356;10.100;2023-12-28T10:10:38;99992.34;;;8.26;100.00
58843;BME280;44614;54.356;10.100;2023-12-28T10:13:03;100064.59;;;8.43;100.00
58843;BME280;44614;54.356;10.100;2023-12-28T10:15:30;100030.56;;;8.33;100.00
58843;BME280;44614;54.356;10.100;2023-12-28T10:17:56;100044.25;;;8.33;100.00
58843;BME280;44614;54.356;10.100;2023-12-28T10:20:21;100083.19;;;8.53;100.00
58843;BME280;44614;54.356;10.100;2023-12-28T10:22:47;100047.22;;;8.49;100.00
58843;BME280;44614;54.356;10.100;2023-12-28T10:25:13;100074.38;;;8.51;100.00
58843;BME280;44614;54.356;10.100;2023-12-28T10:27:39;100081.44;;;8.59;100.00
58843;BME280;44614;54.356;10.100;2023-12-28T10:30:08;100067.97;;;8.57;100.00
58843;BME280;44614;54.356;10.100;2023-12-28T10:32:39;100034.16;;;8.51;100.00
58843;BME280;44614;54.356;10.100;2023-12-28T10:35:05;100048.06;;;8.68;100.00
58843;BME280;44614;54.356;10.100;2023-12-28T10:37:32;100063.31;;;8.76;100.00
58843;BME280;44614;54.356;10.100;2023-12-28T10:39:59;100080.06;;;8.86;100.00
58843;BME280;44614;54.356;10.100;2023-12-28T10:42:29;100087.56;;;8.91;100.00
58843;BME280;44614;54.356;10.100;2023-12-28T10:45:02;100067.41;;;8.85;100.00
58843;BME280;44614;54.356;10.100;2023-12-28T10:47:31;100033.78;;;8.66;100.00
58843;BME280;44614;54.356;10.100;2023-12-28T10:50:00;100108.31;;;8.98;100.00
58843;BME280;44614;54.356;10.100;2023-12-28T10:52:28;100091.44;;;9.01;100.00
58843;BME280;44614;54.356;10.100;2023-12-28T10:57:57;100105.91;;;8.90;100.00
58843;BME280;44614;54.356;10.100;2023-12-28T11:00:25;100077.69;;;8.90;100.00
58843;BME280;44614;54.356;10.100;2023-12-28T11:02:53;100033.59;;;8.61;100.00
58843;BME280;44614;54.356;10.100;2023-12-28T11:05:22;100091.91;;;8.98;100.00
58843;BME280;44614;54.356;10.100;2023-12-28T11:07:49;100032.47;;;8.69;100.00
58843;BME280;44614;54.356;10.100;2023-12-28T11:10:15;100101.19;;;8.97;100.00
58843;BME280;44614;54.356;10.100;2023-12-28T11:12:42;100024.25;;;8.50;100.00
58843;BME280;44614;54.356;10.100;2023-12-28T11:15:09;100097.91;;;8.89;100.00
58843;BME280;44614;54.356;10.100;2023-12-28T11:17:39;100053.47;;;8.57;100.00
58843;BME280;44614;54.356;10.100;2023-12-28T11:20:06;100061.06;;;8.54;100.00
58843;BME280;44614;54.356;10.100;2023-12-28T11:22:32;100106.97;;;8.89;100.00
58843;BME280;44614;54.356;10.100;2023-12-28T11:24:58;100079.69;;;8.64;100.00
58843;BME280;44614;54.356;10.100;2023-12-28T11:27:23;100086.81;;;8.65;100.00
58843;BME280;44614;54.356;10.100;2023-12-28T11:29:49;100122.41;;;8.47;100.00
58843;BME280;44614;54.356;10.100;2023-12-28T11:32:17;100114.19;;;8.47;100.00
58843;BME280;44614;54.356;10.100;2023-12-28T11:34:44;100123.78;;;8.31;100.00
58843;BME280;44614;54.356;10.100;2023-12-28T11:37:16;100108.69;;;8.28;100.00
58843;BME280;44614;54.356;10.100;2023-12-28T11:39:44;100140.06;;;8.26;100.00
58843;BME280;44614;54.356;10.100;2023-12-28T11:42:10;100106.75;;;8.11;100.00
58843;BME280;44614;54.356;10.100;2023-12-28T11:44:41;100110.84;;;8.20;100.00
58843;BME280;44614;54.356;10.100;2023-12-28T11:47:13;100096.28;;;8.26;100.00
58843;BME280;44614;54.356;10.100;2023-12-28T11:49:39;100113.59;;;8.20;100.00
58843;BME280;44614;54.356;10.100;2023-12-28T11:52:09;100092.06;;;8.05;100.00
58843;BME280;44614;54.356;10.100;2023-12-28T11:54:36;100094.16;;;8.10;100.00
58843;BME280;44614;54.356;10.100;2023-12-28T11:57:02;100106.91;;;8.16;100.00
58843;BME280;44614;54.356;10.100;2023-12-28T11:59:28;100103.03;;;8.23;100.00
58843;BME280;44614;54.356;10.100;2023-12-28T12:01:53;100086.38;;;8.06;100.00
58843;BME280;44614;54.356;10.100;2023-12-28T12:04:20;100085.31;;;8.07;100.00
58843;BME280;44614;54.356;10.100;2023-12-28T12:06:46;100097.94;;;8.27;100.00
58843;BME280;44614;54.356;10.100;2023-12-28T12:09:12;100082.28;;;8.16;100.00
58843;BME280;44614;54.356;10.100;2023-12-28T12:11:39;100099.34;;;8.36;100.00
58843;BME280;44614;54.356;10.100;2023-12-28T12:14:11;100097.88;;;8.40;100.00
58843;BME280;44614;54.356;10.100;2023-12-28T12:16:40;100079.31;;;8.42;100.00
58843;BME280;44614;54.356;10.100;2023-12-28T12:19:09;100009.56;;;8.08;100.00
58843;BME280;44614;54.356;10.100;2023-12-28T12:21:35;100008.38;;;8.04;100.00
58843;BME280;44614;54.356;10.100;2023-12-28T12:24:01;100060.00;;;8.37;100.00
58843;BME280;44614;54.356;10.100;2023-12-28T12:26:28;100048.28;;;8.30;100.00
58843;BME280;44614;54.356;10.100;2023-12-28T12:28:55;100038.16;;;8.30;100.00
58843;BME280;44614;54.356;10.100;2023-12-28T12:31:20;100056.72;;;8.47;100.00
58843;BME280;44614;54.356;10.100;2023-12-28T12:33:46;100052.25;;;8.52;100.00
58843;BME280;44614;54.356;10.100;2023-12-28T12:36:11;100070.19;;;8.67;100.00
58843;BME280;44614;54.356;10.100;2023-12-28T12:38:37;100113.50;;;8.88;100.00
58843;BME280;44614;54.356;10.100;2023-12-28T12:41:03;99954.69;;;8.10;100.00
58843;BME280;44614;54.356;10.100;2023-12-28T12:43:29;100114.25;;;8.95;100.00
58843;BME280;44614;54.356;10.100;2023-12-28T12:45:54;100111.97;;;8.92;100.00
58843;BME280;44614;54.356;10.100;2023-12-28T12:48:20;100091.91;;;8.80;100.00